Terminal Aerodrome Forecast
Issued by NWS

Home | Current Version | Previous Version | Text Only | Print | Product List | Glossary On
Versions: 1 2 3 4 5 6 7 8 9 10 11 12 13 14 15 16 17
731
FTUS43 KEAX 270520
TAFSTJ
TAF
KSTJ 270520Z 2706/2806 02009KT P6SM -SHRA SCT025 BKN050
      TEMPO 2706/2710 5SM -SHRA BR BKN025
     FM271000 01006KT 5SM -SHRA BR OVC015
      TEMPO 2711/2715 4SM -SHRA BR OVC009
     FM271500 36009KT P6SM OVC018
     FM272300 34008KT P6SM SCT025=

USA.gov is the U.S. government's official web portal to all federal, state and local government web resources and services.